Maria Noelle — WDD9564 — position and weather

sailwx.info

Track history (hours):
 
Tides and Currents Weather Stations Pressure Air Temp Water Temp Dewpoint Dewpoint Depression Visibility Wind Speed Wind Dir Waves Ship Positions

Maria Noelle

Owner: MUROS INC, POINT PLEASANT, NJ. More information available from US FCC via Universal Licensing System and Coast Guard Vessel Documentation Center.

Last reported at 2014-Oct-18 02:14 UTC. Time now 2014-Oct-24 11:30 UTC.
Position N 40°06' W 074°02'.

Length 26 m.

Type: Fishing. MMSI: 367313170.

Date/timePositionNaut miles runAvg speedWind from/ knotsBaromVisibWave heightAir tempDewpointWater temp
2014-Oct-18 02:14N 40°06' W 074°02'5 6.5
2014-Oct-18 01:31N 40°07' W 073°56'7 7.4
2014-Oct-18 00:34N 40°09' W 073°48'7 7.2
2014-Oct-17 23:34N 40°11' W 073°38'22 4.9
2014-Oct-17 19:09N 40°18' W 073°12'1 0.9
2014-Oct-17 17:34N 40°19' W 073°10'2 2.2
2014-Oct-17 16:33N 40°17' W 073°10'4 3.7
2014-Oct-17 15:24N 40°13' W 073°11'5 1.6
2014-Oct-17 12:31N 40°08' W 073°13'38 0.8
2014-Oct-15 15:07N 40°06' W 074°02'0 0.0
2014-Oct-15 14:16N 40°06' W 074°02'  
2014-Oct-12 16:04N 40°07' W 073°51'6 8.4
2014-Oct-12 15:22N 40°08' W 073°44'6 5.2
2014-Oct-12 14:16N 40°08' W 073°36'2 2.7
2014-Oct-12 13:33N 40°07' W 073°34'0 0.3
2014-Oct-12 12:33N 40°07' W 073°35'3 2.7
2014-Oct-12 11:23N 40°09' W 073°38'2 2.0
2014-Oct-12 10:31N 40°10' W 073°40'3 2.7
2014-Oct-12 09:33N 40°09' W 073°37'3 2.9
2014-Oct-12 08:32N 40°07' W 073°34'1 0.8
2014-Oct-12 07:29N 40°07' W 073°33'3 2.8
2014-Oct-12 06:33N 40°08' W 073°36'0 0.4
2014-Oct-12 05:32N 40°08' W 073°35'3 2.9
2014-Oct-12 04:33N 40°06' W 073°32'1 1.5
2014-Oct-12 03:32N 40°07' W 073°34'0 0.2
2014-Oct-12 02:25N 40°07' W 073°34'3 3.4
2014-Oct-12 01:32N 40°05' W 073°31'2 2.5
2014-Oct-12 00:33N 40°07' W 073°34'3 2.3
2014-Oct-11 23:07N 40°09' W 073°37'2 2.9
2014-Oct-11 22:25N 40°10' W 073°39'3 2.6
2014-Oct-11 21:16N 40°11' W 073°43'2 2.5
2014-Oct-11 20:28N 40°10' W 073°41'10 0.7
2014-Oct-11 05:31N 40°06' W 073°28'9 0.9
2014-Oct-10 20:20N 40°04' W 073°17'4 4.1
2014-Oct-10 19:24N 40°03' W 073°12'2 2.7
2014-Oct-10 18:31N 40°03' W 073°15'4 3.9
2014-Oct-10 17:31N 40°05' W 073°20'5 4.9
2014-Oct-10 16:32N 40°06' W 073°26'8 7.8
2014-Oct-10 15:28N 40°07' W 073°37'8 8.3
2014-Oct-10 14:27N 40°06' W 073°48'10 8.3
2014-Oct-10 13:14N 40°06' W 074°01'  
Track history (hours):
 
Tides and Currents Weather Stations Pressure Air Temp Water Temp Dewpoint Dewpoint Depression Visibility Wind Speed Wind Dir Waves Ship Positions

Maria Noelle

Owner: MUROS INC, POINT PLEASANT, NJ. More information available from US FCC via Universal Licensing System and Coast Guard Vessel Documentation Center.

Last reported at 2014-Oct-18 02:14 UTC. Time now 2014-Oct-24 11:30 UTC.
Position N 40°06' W 074°02'.

Length 26 m.

Type: Fishing. MMSI: 367313170.

Date/timePositionNaut miles runAvg speedWind from/ knotsBaromVisibWave heightAir tempDewpointWater temp
2014-Oct-18 02:14N 40°06' W 074°02'5 6.5
2014-Oct-18 01:31N 40°07' W 073°56'7 7.4
2014-Oct-18 00:34N 40°09' W 073°48'7 7.2
2014-Oct-17 23:34N 40°11' W 073°38'22 4.9
2014-Oct-17 19:09N 40°18' W 073°12'1 0.9
2014-Oct-17 17:34N 40°19' W 073°10'2 2.2
2014-Oct-17 16:33N 40°17' W 073°10'4 3.7
2014-Oct-17 15:24N 40°13' W 073°11'5 1.6
2014-Oct-17 12:31N 40°08' W 073°13'38 0.8
2014-Oct-15 15:07N 40°06' W 074°02'0 0.0
2014-Oct-15 14:16N 40°06' W 074°02'  
2014-Oct-12 16:04N 40°07' W 073°51'6 8.4
2014-Oct-12 15:22N 40°08' W 073°44'6 5.2
2014-Oct-12 14:16N 40°08' W 073°36'2 2.7
2014-Oct-12 13:33N 40°07' W 073°34'0 0.3
2014-Oct-12 12:33N 40°07' W 073°35'3 2.7
2014-Oct-12 11:23N 40°09' W 073°38'2 2.0
2014-Oct-12 10:31N 40°10' W 073°40'3 2.7
2014-Oct-12 09:33N 40°09' W 073°37'3 2.9
2014-Oct-12 08:32N 40°07' W 073°34'1 0.8
2014-Oct-12 07:29N 40°07' W 073°33'3 2.8
2014-Oct-12 06:33N 40°08' W 073°36'0 0.4
2014-Oct-12 05:32N 40°08' W 073°35'3 2.9
2014-Oct-12 04:33N 40°06' W 073°32'1 1.5
2014-Oct-12 03:32N 40°07' W 073°34'0 0.2
2014-Oct-12 02:25N 40°07' W 073°34'3 3.4
2014-Oct-12 01:32N 40°05' W 073°31'2 2.5
2014-Oct-12 00:33N 40°07' W 073°34'3 2.3
2014-Oct-11 23:07N 40°09' W 073°37'2 2.9
2014-Oct-11 22:25N 40°10' W 073°39'3 2.6
2014-Oct-11 21:16N 40°11' W 073°43'2 2.5
2014-Oct-11 20:28N 40°10' W 073°41'10 0.7
2014-Oct-11 05:31N 40°06' W 073°28'9 0.9
2014-Oct-10 20:20N 40°04' W 073°17'4 4.1
2014-Oct-10 19:24N 40°03' W 073°12'2 2.7
2014-Oct-10 18:31N 40°03' W 073°15'4 3.9
2014-Oct-10 17:31N 40°05' W 073°20'5 4.9
2014-Oct-10 16:32N 40°06' W 073°26'8 7.8
2014-Oct-10 15:28N 40°07' W 073°37'8 8.3
2014-Oct-10 14:27N 40°06' W 073°48'10 8.3
2014-Oct-10 13:14N 40°06' W 074°01'  

Dump ship's entire track history